createdAt,value
2019-03-12T01:20:43.504Z,83.55
2019-03-12T01:23:14.463Z,78.22
2019-03-12T01:25:45.644Z,74.90
2019-03-12T01:28:20.495Z,78.02
2019-03-12T01:30:51.536Z,75.15
2019-03-12T01:33:23.049Z,75.62
2019-03-12T01:35:54.597Z,85.70
2019-03-12T01:38:25.732Z,82.72
2019-03-12T01:41:06.462Z,76.45
2019-03-12T01:43:38.129Z,78.90
2019-03-12T01:46:09.867Z,79.82
2019-03-12T01:48:42.294Z,73.97
2019-03-12T01:51:20.644Z,75.57
2019-03-12T01:53:53.456Z,79.55
2019-03-12T01:56:24.876Z,79.67
2019-03-12T01:59:02.750Z,77.32
2019-03-12T02:01:35.140Z,78.65
2019-03-12T02:04:10.310Z,76.62
2019-03-12T02:06:41.957Z,78.90
2019-03-12T02:09:14.359Z,75.30
2019-03-12T02:11:54.409Z,78.92
2019-03-12T02:14:28.348Z,78.35
2019-03-12T02:17:00.110Z,81.32
2019-03-12T02:19:31.242Z,74.17
2019-03-12T02:22:13.905Z,74.27
2019-03-12T02:24:52.626Z,76.12
2019-03-12T02:27:23.067Z,77.58
2019-03-12T02:29:54.831Z,76.65
2019-03-12T02:32:26.085Z,79.67
2019-03-12T02:34:57.239Z,66.77
2019-03-12T02:37:32.690Z,73.30
2019-03-12T02:40:14.286Z,68.55
2019-03-12T02:42:43.350Z,74.40
2019-03-12T02:45:16.304Z,67.80
2019-03-12T02:47:47.467Z,72.03
2019-03-12T02:50:22.556Z,74.75
2019-03-12T02:52:55.502Z,80.00
2019-03-12T02:55:27.020Z,71.90
2019-03-12T02:57:59.153Z,74.70
2019-03-12T03:00:30.569Z,74.32
2019-03-12T03:03:22.285Z,66.40
2019-03-12T03:05:55.204Z,79.03
2019-03-12T03:08:41.618Z,71.47
2019-03-12T03:11:05.736Z,72.42
2019-03-12T03:13:36.961Z,69.80
2019-03-12T03:16:07.731Z,73.67
2019-03-12T03:21:32.857Z,56.48
2019-03-12T03:24:03.856Z,63.48
2019-03-12T03:26:35.763Z,62.33
2019-03-12T03:29:08.721Z,62.00
2019-03-12T03:34:35.808Z,54.03
2019-03-12T03:37:07.668Z,46.23
2019-03-12T03:39:43.519Z,47.90
2019-03-12T03:42:14.710Z,50.30
2019-03-12T03:44:46.315Z,52.88
2019-03-12T03:47:19.958Z,67.97
2019-03-12T03:49:49.682Z,57.95
2019-03-12T03:52:20.326Z,52.15
2019-03-12T03:54:53.237Z,55.33
2019-03-12T03:57:24.532Z,47.00
2019-03-12T03:59:56.825Z,50.12
2019-03-12T04:02:27.525Z,49.30
2019-03-12T04:04:58.626Z,46.73
2019-03-12T04:07:33.348Z,43.40
2019-03-12T04:10:06.113Z,44.70
2019-03-12T04:12:37.376Z,44.77
2019-03-12T04:15:11.826Z,45.28
2019-03-12T04:17:43.518Z,48.33
2019-03-12T04:20:17.097Z,45.73
2019-03-12T04:22:48.020Z,46.48
2019-03-12T04:25:18.772Z,47.73
2019-03-12T04:27:49.647Z,46.92
2019-03-12T04:30:21.138Z,45.08
2019-03-12T04:32:52.535Z,47.95
2019-03-12T04:35:25.980Z,45.35
2019-03-12T04:37:58.189Z,49.03
2019-03-12T04:40:29.184Z,46.00
2019-03-12T04:43:00.589Z,44.95
2019-03-12T04:45:31.668Z,54.77
2019-03-12T04:48:02.585Z,52.23
2019-03-12T04:50:33.521Z,45.15
2019-03-12T04:53:04.149Z,40.28
2019-03-12T04:55:35.088Z,42.27
2019-03-12T04:58:07.713Z,47.03
2019-03-12T05:06:14.884Z,42.62
2019-03-12T05:08:47.344Z,45.20
2019-03-12T05:11:25.734Z,42.62
2019-03-12T05:13:59.904Z,38.00
2019-03-12T05:16:30.675Z,43.42
2019-03-12T05:19:01.671Z,39.03
2019-03-12T05:21:35.059Z,41.13
2019-03-12T05:24:05.935Z,43.95
2019-03-12T05:26:39.645Z,39.70
2019-03-12T05:29:10.504Z,42.30
2019-03-12T05:31:41.613Z,44.13
2019-03-12T05:34:12.530Z,37.10
2019-03-12T05:36:44.666Z,41.48
2019-03-12T05:39:15.611Z,39.10
2019-03-12T05:41:48.718Z,39.78
2019-03-12T05:44:20.238Z,41.98
2019-03-12T05:46:51.469Z,39.25
2019-03-12T05:49:22.535Z,38.15
2019-03-12T05:51:56.289Z,37.35
2019-03-12T05:54:28.917Z,35.92
2019-03-12T05:56:59.992Z,35.30
2019-03-12T05:59:30.731Z,38.58
2019-03-12T06:02:05.773Z,36.10
2019-03-12T06:07:59.324Z,35.75
2019-03-12T06:10:30.296Z,35.68
2019-03-12T06:13:01.284Z,38.60
2019-03-12T06:15:32.284Z,39.30
2019-03-12T06:18:03.696Z,38.48
2019-03-12T06:20:34.823Z,31.65
2019-03-12T06:23:06.349Z,31.05
2019-03-12T06:25:37.088Z,34.45
2019-03-12T06:28:07.954Z,29.23
2019-03-12T06:30:40.175Z,31.00
2019-03-12T06:33:15.104Z,32.08
2019-03-12T06:35:46.254Z,34.38
2019-03-12T06:38:23.008Z,31.55
2019-03-12T06:40:55.932Z,31.55
2019-03-12T06:43:28.298Z,30.08
2019-03-12T06:46:00.859Z,32.78
2019-03-12T06:48:32.959Z,30.40
2019-03-12T06:51:06.536Z,32.15
2019-03-12T06:53:39.248Z,30.30
2019-03-12T06:56:11.459Z,31.05
2019-03-12T06:58:46.968Z,34.83
2019-03-12T07:01:23.593Z,35.75
2019-03-12T07:03:55.960Z,36.13
2019-03-12T07:06:31.841Z,37.17
2019-03-12T07:09:04.303Z,32.53
2019-03-12T07:11:42.111Z,30.95
2019-03-12T07:14:14.576Z,34.50
2019-03-12T07:16:46.801Z,33.40
2019-03-12T07:19:20.343Z,37.42
2019-03-12T07:21:52.926Z,33.83
2019-03-12T07:24:25.345Z,40.48
2019-03-12T07:27:00.949Z,38.83
2019-03-12T07:29:33.239Z,39.98
2019-03-12T07:32:09.779Z,35.10
2019-03-12T07:34:46.591Z,35.83
2019-03-12T07:37:18.260Z,37.03
2019-03-12T07:39:50.449Z,41.48
2019-03-12T07:42:24.551Z,38.30
2019-03-12T07:44:56.852Z,43.13
2019-03-12T07:47:35.694Z,45.00
2019-03-12T07:50:04.120Z,37.90
2019-03-12T07:52:36.576Z,35.68
2019-03-12T07:55:09.232Z,41.18
2019-03-12T07:57:41.628Z,34.25
2019-03-12T08:00:16.661Z,38.60
2019-03-12T08:02:49.050Z,35.17
2019-03-12T08:05:23.159Z,40.52
2019-03-12T08:07:54.918Z,37.60
2019-03-12T08:10:33.797Z,38.67
2019-03-12T08:13:05.248Z,37.55
2019-03-12T08:15:37.701Z,36.53
2019-03-12T08:18:08.389Z,40.67
2019-03-12T08:20:42.091Z,39.10
2019-03-12T08:23:15.956Z,41.20
2019-03-12T08:25:48.293Z,40.92
2019-03-12T08:28:21.327Z,43.55
2019-03-12T08:30:53.541Z,45.40
2019-03-12T08:33:24.057Z,43.23
2019-03-12T08:35:56.451Z,46.00
2019-03-12T08:38:28.716Z,41.98
2019-03-12T08:41:10.101Z,44.05
2019-03-12T08:43:40.847Z,37.38
2019-03-12T08:46:12.827Z,44.75
2019-03-12T08:48:44.932Z,40.30
2019-03-12T08:51:17.367Z,44.03
2019-03-12T08:53:51.076Z,42.73
2019-03-12T08:56:26.669Z,44.85
2019-03-12T08:58:57.546Z,42.75
2019-03-12T09:01:29.928Z,47.03
2019-03-12T09:04:02.292Z,40.60
2019-03-12T09:06:34.650Z,34.03
2019-03-12T09:09:08.080Z,33.65
2019-03-12T09:11:40.447Z,32.40
2019-03-12T09:14:12.844Z,37.00
2019-03-12T09:16:48.474Z,42.10
2019-03-12T09:19:22.088Z,36.25
2019-03-12T09:21:54.096Z,35.75
2019-03-12T09:24:26.706Z,33.58
2019-03-12T09:26:58.985Z,35.63
2019-03-12T09:29:31.471Z,32.90
2019-03-12T09:32:03.729Z,31.27
2019-03-12T09:34:36.217Z,32.85
2019-03-12T09:37:09.508Z,29.72
2019-03-12T09:39:43.881Z,32.38
2019-03-12T09:42:18.188Z,26.62
2019-03-12T09:44:50.719Z,29.02
2019-03-12T09:47:26.011Z,32.93
2019-03-12T09:49:58.129Z,32.65
2019-03-12T09:52:31.533Z,29.18
2019-03-12T09:55:05.038Z,35.38
2019-03-12T09:57:40.516Z,36.58
2019-03-12T10:00:17.575Z,33.05
2019-03-12T10:02:59.973Z,35.08
2019-03-12T10:05:32.143Z,38.30
2019-03-12T10:08:05.297Z,33.50
2019-03-12T10:10:37.610Z,37.17
2019-03-12T10:13:10.748Z,41.48
2019-03-12T10:15:43.064Z,38.28
2019-03-12T10:18:15.242Z,41.18
2019-03-12T10:20:48.383Z,34.35
2019-03-12T10:23:22.251Z,36.77
2019-03-12T10:25:54.517Z,40.00
2019-03-12T10:28:27.078Z,40.05
2019-03-12T10:30:59.092Z,37.03
2019-03-12T10:33:31.419Z,35.00
2019-03-12T10:36:06.752Z,38.78
2019-03-12T10:38:41.933Z,39.63
2019-03-12T10:41:14.859Z,35.15
2019-03-12T10:43:45.981Z,37.10
2019-03-12T10:46:18.217Z,39.08
2019-03-12T10:48:48.941Z,38.53
2019-03-12T10:51:19.814Z,42.30
2019-03-12T10:53:50.544Z,36.35
2019-03-12T10:56:22.212Z,34.67
2019-03-12T10:58:53.320Z,36.90
2019-03-12T11:01:24.901Z,41.10
2019-03-12T11:03:57.279Z,39.05
2019-03-12T11:06:28.319Z,44.65
2019-03-12T11:08:59.329Z,41.15
2019-03-12T11:11:31.640Z,41.92
2019-03-12T11:14:02.539Z,46.30
2019-03-12T11:16:33.639Z,43.15
2019-03-12T11:19:04.617Z,49.40
2019-03-12T11:21:35.349Z,44.93
2019-03-12T11:24:06.231Z,52.98
2019-03-12T11:26:37.021Z,58.00
2019-03-12T11:29:07.759Z,80.10
2019-03-12T11:31:38.698Z,91.10
2019-03-12T11:34:12.521Z,85.53
2019-03-12T11:36:43.301Z,94.58
2019-03-12T11:39:15.537Z,92.95
2019-03-12T11:41:50.010Z,103.78
2019-03-12T11:44:20.947Z,104.72
2019-03-12T11:46:53.072Z,116.17
2019-03-12T11:49:25.073Z,115.25
2019-03-12T11:51:58.171Z,110.42
2019-03-12T11:54:29.134Z,119.60
2019-03-12T11:57:03.918Z,108.10
2019-03-12T11:59:34.734Z,99.52
2019-03-12T12:02:05.371Z,89.07
2019-03-12T12:04:36.210Z,89.75
2019-03-12T12:07:07.127Z,81.22
2019-03-12T12:09:39.390Z,82.62
2019-03-12T12:12:10.681Z,78.75
2019-03-12T12:14:41.240Z,84.13
2019-03-12T12:17:12.193Z,76.33
2019-03-12T12:19:43.446Z,76.70
2019-03-12T12:22:14.479Z,72.72
2019-03-12T12:24:45.867Z,73.65
2019-03-12T12:27:16.807Z,73.50
2019-03-12T12:29:47.776Z,67.80
2019-03-12T12:32:18.504Z,72.10
2019-03-12T12:34:49.294Z,74.47
2019-03-12T12:37:20.090Z,78.47
2019-03-12T12:39:51.066Z,71.12
2019-03-12T12:42:21.939Z,75.17
2019-03-12T12:44:52.803Z,67.55
2019-03-12T12:47:23.667Z,71.53
2019-03-12T12:49:54.550Z,76.67
2019-03-12T12:52:25.390Z,68.25
2019-03-12T12:54:56.236Z,71.55
2019-03-12T12:57:27.096Z,59.50
2019-03-12T12:59:58.133Z,65.60
2019-03-12T13:02:28.822Z,69.60
2019-03-12T13:04:59.821Z,66.17
2019-03-12T13:07:30.641Z,65.67
2019-03-12T13:10:01.488Z,65.28
2019-03-12T13:12:32.291Z,70.15
2019-03-12T13:15:03.121Z,67.37
2019-03-12T13:17:34.135Z,60.78
2019-03-12T13:20:05.366Z,65.83
2019-03-12T13:22:38.799Z,63.30
2019-03-12T13:25:12.354Z,71.67
2019-03-12T13:27:43.435Z,61.48
2019-03-12T13:30:17.144Z,60.43
2019-03-12T13:32:48.892Z,67.50
2019-03-12T13:35:20.513Z,65.45
2019-03-12T13:37:54.945Z,65.35
2019-03-12T13:40:27.534Z,62.93
2019-03-12T13:42:58.718Z,74.15
2019-03-12T13:45:32.294Z,69.45
2019-03-12T13:48:03.502Z,70.62
2019-03-12T13:50:34.674Z,63.05
2019-03-12T13:53:05.702Z,65.65
2019-03-12T13:55:36.640Z,58.30
2019-03-12T13:58:07.479Z,61.15
2019-03-12T14:00:38.417Z,62.08
2019-03-12T14:03:09.206Z,67.00
2019-03-12T14:05:40.202Z,63.58
2019-03-12T14:08:13.913Z,64.40
2019-03-12T14:10:44.811Z,71.05
2019-03-12T14:13:15.673Z,66.30
2019-03-12T14:15:49.664Z,68.40
2019-03-12T14:18:20.470Z,65.60
2019-03-12T14:20:53.846Z,69.70
2019-03-12T14:23:27.362Z,71.05
2019-03-12T14:25:58.354Z,79.62
2019-03-12T14:28:28.985Z,74.53
2019-03-12T14:30:59.907Z,74.12
2019-03-12T14:33:30.716Z,70.87
2019-03-12T14:36:03.366Z,65.57
2019-03-12T14:38:35.887Z,65.85
2019-03-12T14:41:06.494Z,64.72
2019-03-12T14:43:37.291Z,69.92
2019-03-12T14:46:08.206Z,66.77
2019-03-12T14:48:41.919Z,69.60
2019-03-12T14:51:15.828Z,69.67
2019-03-12T14:53:49.413Z,68.42
2019-03-12T14:56:20.316Z,72.90
2019-03-12T14:58:52.914Z,73.02
2019-03-12T15:01:23.311Z,73.78
2019-03-12T15:03:54.372Z,68.37
2019-03-12T15:06:25.479Z,72.22
2019-03-12T15:08:56.001Z,73.40
2019-03-12T15:11:26.555Z,73.62
2019-03-12T15:13:57.551Z,76.80
2019-03-12T15:16:29.026Z,76.82
2019-03-12T15:18:59.800Z,82.45
2019-03-12T15:21:30.877Z,77.90
2019-03-12T15:24:01.790Z,74.72
2019-03-12T15:26:33.805Z,83.62
2019-03-12T15:29:04.610Z,78.02
2019-03-12T15:31:35.751Z,83.33
2019-03-12T15:34:06.505Z,85.32
2019-03-12T15:36:37.353Z,80.90
2019-03-12T15:39:08.699Z,74.55
2019-03-12T15:41:39.579Z,86.92
2019-03-12T15:44:10.431Z,81.57
2019-03-12T15:46:41.256Z,77.95
2019-03-12T15:49:11.905Z,82.33
2019-03-12T15:51:42.881Z,85.70
2019-03-12T15:54:13.809Z,81.17
2019-03-12T15:56:45.484Z,87.55
2019-03-12T15:59:16.249Z,82.60
2019-03-12T16:01:47.112Z,86.80
2019-03-12T16:04:17.729Z,89.90
2019-03-12T16:07:00.387Z,83.72
2019-03-12T16:09:20.738Z,80.00
2019-03-12T16:11:51.605Z,85.53
2019-03-12T16:14:22.893Z,76.57
2019-03-12T16:16:53.757Z,82.15
2019-03-12T16:19:24.642Z,77.40
2019-03-12T16:21:55.537Z,75.67
2019-03-12T16:24:26.377Z,81.42
2019-03-12T16:26:58.071Z,77.17
2019-03-12T16:29:28.787Z,76.25
2019-03-12T16:31:59.734Z,71.57
2019-03-12T16:34:30.538Z,78.67
2019-03-12T16:37:01.323Z,77.40
2019-03-12T16:39:34.825Z,78.15
2019-03-12T16:42:05.545Z,78.17
2019-03-12T16:44:36.678Z,76.45
2019-03-12T16:47:07.452Z,82.40
2019-03-12T16:49:37.999Z,78.65
2019-03-12T16:52:08.753Z,77.45
2019-03-12T16:54:39.846Z,79.95
2019-03-12T16:57:10.554Z,80.07
2019-03-12T16:59:41.268Z,82.33
2019-03-12T17:02:12.198Z,80.12
2019-03-12T17:04:43.011Z,88.37
2019-03-12T17:07:13.822Z,88.47
2019-03-12T17:09:44.915Z,91.42
2019-03-12T17:12:16.181Z,91.60
2019-03-12T17:14:47.100Z,103.02
2019-03-12T17:17:23.705Z,101.45
2019-03-12T17:19:54.490Z,114.55
2019-03-12T17:22:25.327Z,107.35
2019-03-12T17:24:56.231Z,108.15
2019-03-12T17:27:27.036Z,108.95
2019-03-12T17:29:57.896Z,112.20
2019-03-12T17:32:31.416Z,109.48
2019-03-12T17:35:02.254Z,107.40
2019-03-12T17:37:33.073Z,102.67
2019-03-12T17:40:05.190Z,107.95
2019-03-12T17:42:35.980Z,109.07
2019-03-12T17:45:09.354Z,108.87
2019-03-12T17:47:40.932Z,106.43
2019-03-12T17:50:14.588Z,106.15
2019-03-12T17:52:50.011Z,102.58
2019-03-12T17:55:21.078Z,104.32
2019-03-12T17:58:12.304Z,107.65
2019-03-12T18:00:44.368Z,105.50
2019-03-12T18:03:15.228Z,103.50
2019-03-12T18:05:46.042Z,104.80
2019-03-12T18:08:19.948Z,105.25
2019-03-12T18:10:50.612Z,107.25
2019-03-12T18:13:21.467Z,108.27
2019-03-12T18:15:52.439Z,118.50
2019-03-12T18:18:24.346Z,106.47
2019-03-12T18:20:55.237Z,108.32
2019-03-12T18:23:25.961Z,106.63
2019-03-12T18:25:56.551Z,102.70
2019-03-12T18:28:27.656Z,111.83
2019-03-12T18:30:58.645Z,104.58
2019-03-12T18:33:34.794Z,106.70
2019-03-12T18:36:05.611Z,104.78
2019-03-12T18:38:36.535Z,110.88
2019-03-12T18:41:07.630Z,107.50
2019-03-12T18:43:39.898Z,104.15
2019-03-12T18:46:10.724Z,108.57
2019-03-12T18:48:44.591Z,100.92
2019-03-12T18:51:14.888Z,114.55
2019-03-12T18:53:45.939Z,111.37
2019-03-12T18:56:16.636Z,109.03
2019-03-12T18:58:47.213Z,112.42
2019-03-12T19:01:18.025Z,113.52
2019-03-12T19:03:50.168Z,112.62
2019-03-12T19:06:21.037Z,109.45
2019-03-12T19:08:51.901Z,110.72
2019-03-12T19:11:22.799Z,110.25
2019-03-12T19:13:56.359Z,113.85
2019-03-12T19:16:27.218Z,107.70
2019-03-12T19:18:57.792Z,114.40
2019-03-12T19:21:30.016Z,106.17
2019-03-12T19:24:00.702Z,112.57
2019-03-12T19:26:31.780Z,113.60
2019-03-12T19:29:04.120Z,113.60
2019-03-12T19:31:38.867Z,115.47
2019-03-12T19:34:14.325Z,114.65
2019-03-12T19:36:45.126Z,113.62
2019-03-12T19:39:17.304Z,116.17
2019-03-12T19:41:48.869Z,114.37
2019-03-12T19:44:19.470Z,115.77
2019-03-12T19:46:50.278Z,110.88
2019-03-12T19:49:21.492Z,109.30
2019-03-12T19:51:52.450Z,112.28
2019-03-12T19:54:23.480Z,110.88
2019-03-12T19:56:54.184Z,105.97
2019-03-12T19:59:24.935Z,111.35
2019-03-12T20:01:57.521Z,113.90
2019-03-12T20:04:28.321Z,108.67
2019-03-12T20:06:59.083Z,114.25
2019-03-12T20:09:32.807Z,113.62
2019-03-12T20:12:06.405Z,120.92
2019-03-12T20:14:40.222Z,123.07
2019-03-12T20:17:13.914Z,118.72
2019-03-12T20:19:47.617Z,126.60
2019-03-12T20:22:21.123Z,114.62
2019-03-12T20:24:54.493Z,121.10
2019-03-12T20:27:28.125Z,114.37
2019-03-12T20:30:01.742Z,110.32
2019-03-12T20:32:35.111Z,120.53
2019-03-12T20:35:08.515Z,118.08
2019-03-12T20:37:42.011Z,120.30
2019-03-12T20:40:15.614Z,114.77
2019-03-12T20:42:49.136Z,117.77
2019-03-12T20:45:22.874Z,110.28
2019-03-12T20:47:56.423Z,111.88
2019-03-12T20:50:30.036Z,108.95
2019-03-12T20:53:03.551Z,105.07
2019-03-12T20:55:37.036Z,107.92
2019-03-12T20:58:11.560Z,104.70
2019-03-12T21:00:45.161Z,114.95
2019-03-12T21:03:18.974Z,117.77
2019-03-12T21:05:52.481Z,113.62
2019-03-12T21:08:25.873Z,115.82
2019-03-12T21:10:59.445Z,117.33
2019-03-12T21:13:32.708Z,116.22
2019-03-12T21:16:06.401Z,118.70
2019-03-12T21:18:39.747Z,116.22
2019-03-12T21:21:13.468Z,126.65
2019-03-12T21:23:46.885Z,111.12
2019-03-12T21:26:20.838Z,117.82
2019-03-12T21:28:54.291Z,122.90
2019-03-12T21:31:25.814Z,114.28
2019-03-12T21:33:56.701Z,121.30
2019-03-12T21:36:30.819Z,127.85
2019-03-12T21:38:59.563Z,121.02
2019-03-12T21:41:30.375Z,118.37
2019-03-12T21:44:01.381Z,122.95
2019-03-12T21:46:31.974Z,124.30
2019-03-12T21:49:02.850Z,116.12
2019-03-12T21:51:33.541Z,121.70
2019-03-12T21:54:04.283Z,122.28
2019-03-12T21:56:35.373Z,123.20
2019-03-12T21:59:06.530Z,124.22
2019-03-12T22:01:37.159Z,121.20
2019-03-12T22:04:08.038Z,122.33
2019-03-12T22:06:38.762Z,127.92
2019-03-12T22:09:09.539Z,116.88
2019-03-12T22:11:40.496Z,128.30
2019-03-12T22:14:10.990Z,121.22
2019-03-12T22:16:42.011Z,139.65
2019-03-12T22:19:13.176Z,124.15
2019-03-12T22:21:45.159Z,129.93
2019-03-12T22:24:17.563Z,126.45
2019-03-12T22:26:48.464Z,123.92
2019-03-12T22:29:19.568Z,126.70
2019-03-12T22:31:52.035Z,127.97
2019-03-12T22:34:22.558Z,131.52
2019-03-12T22:36:53.228Z,125.87
2019-03-12T22:39:24.185Z,134.15
2019-03-12T22:41:57.563Z,120.97
2019-03-12T22:44:28.151Z,125.92
2019-03-12T22:46:59.065Z,123.45
2019-03-12T22:49:32.853Z,125.53
2019-03-12T22:52:03.913Z,125.70
2019-03-12T22:54:34.705Z,126.82
2019-03-12T22:57:05.484Z,126.65
2019-03-12T22:59:36.388Z,126.90
2019-03-12T23:02:07.183Z,124.72
2019-03-12T23:04:38.079Z,128.62
2019-03-12T23:07:08.902Z,137.25
2019-03-12T23:09:39.341Z,131.47
2019-03-12T23:12:10.235Z,134.35
2019-03-12T23:14:41.130Z,142.15
2019-03-12T23:17:11.966Z,136.07
2019-03-12T23:19:43.128Z,135.57
2019-03-12T23:22:13.981Z,123.30
2019-03-12T23:24:44.948Z,115.05
2019-03-12T23:27:15.806Z,116.12
2019-03-12T23:29:46.630Z,121.37
2019-03-12T23:32:17.882Z,122.25
2019-03-12T23:34:48.649Z,118.72
2019-03-12T23:37:19.385Z,118.95
2019-03-12T23:39:49.889Z,111.03
2019-03-12T23:42:21.042Z,112.57
2019-03-12T23:44:51.664Z,110.35
2019-03-12T23:47:22.630Z,115.05
2019-03-12T23:49:53.244Z,123.70
2019-03-12T23:52:24.007Z,113.10
2019-03-12T23:54:54.886Z,124.15
2019-03-12T23:57:25.566Z,142.30
2019-03-12T23:59:56.396Z,136.32
